• Join FlightAware (Why Join?)
  • Login
  • US Flag 
09:29PM EDT


 

Airport Tracker/Info


-or-


 

Live Flight TrackerFlight Track Log ✈ JZA7655 ✈ 13-May-2014 ✈ KDCA - CYUL

Flight Track Log - Related Links

Times and Time Zones

All times are in EDT time to prevent confusion due to time zone crossing. See the JZA7655 flight status page for this flight to view local times or setup timezone preferences in your user account.

Time Position Orientation Groundspeed Altitude Reporting Facility
EDT Latitude Longitude Course Direction KTS MPH feet Rate Location/Type
05:18PM 38.8167 -77.0333 330° Northwest 163 188 1,500  Level Potomac TRACON
05:19PM 38.7500 -77.0333 180° South 214 246 4,200 2,640 Climbing Potomac TRACON
05:20PM 38.7667 -77.0833 293° West 227 261 6,600 2,160 Climbing Potomac TRACON
05:21PM 38.8167 -77.1500 314° West 287 330 8,400 2,100 Climbing Potomac TRACON
05:22PM 39.3859 -77.3175 346° North  Level FlightAware Approximate
05:22PM 38.8833 -77.2167 322° Northwest 288 331 10,800  Level Potomac TRACON
05:23PM 39.4929 -77.3780 330° Northwest  Level FlightAware Approximate
05:23PM 38.9333 -77.2833 314° West 288 331 12,800  Level Potomac TRACON
05:25PM 39.0808 -77.4178 325° Northwest 290 334 17,000 1,260 Climbing Washington Center
05:26PM 39.1808 -77.4231 358° North 310 357 17,200 1,020 Climbing Washington Center
05:27PM 39.2828 -77.4311 356° North 343 395 19,100 1,980 Climbing Washington Center
05:28PM 39.3828 -77.4361 358° North 352 405 21,100 1,560 Climbing Washington Center
05:29PM 39.4806 -77.4442 356° North 352 405 22,300 1,320 Climbing Washington Center
05:30PM 39.5806 -77.4519 357° North 352 405 23,800 1,140 Climbing Washington Center
05:31PM 39.7239 -77.4544 359° North 379 436 25,000 480 Climbing New York Center
05:32PM 39.8367 -77.4544 360° North 389 448 25,000  Level New York Center
05:33PM 39.9578 -77.4497 North 411 473 25,000 300 Level New York Center
05:34PM 40.0808 -77.4506 360° North 432 497 25,600 780 Climbing New York Center
05:35PM 40.2144 -77.4472 North 441 507 26,700 1,020 Climbing New York Center
05:36PM 40.3397 -77.4428 North 441 507 27,700 1,320 Climbing New York Center
05:37PM 40.4544 -77.4403 North 429 494 29,400 1,140 Climbing New York Center
05:38PM 40.5697 -77.4322 North 423 487 30,100 720 Climbing New York Center
05:39PM 40.6325 -77.4067 17° North 422 486 30,500 600 Climbing Cleveland Center
05:40PM 40.7469 -77.3625 16° North 430 495 31,100 540 Climbing Cleveland Center
05:41PM 40.8625 -77.3181 16° North 434 499 31,700 540 Climbing Cleveland Center
05:42PM 40.9781 -77.2733 16° North 436 502 32,300 600 Climbing Cleveland Center
05:43PM 41.0944 -77.2275 17° North 437 503 33,000 300 Climbing Cleveland Center
05:44PM 41.2353 -77.1728 16° North 442 509 33,000  Level Cleveland Center
05:45PM 41.3539 -77.1278 16° North 445 512 33,000  Level Cleveland Center
05:46PM 41.4714 -77.0817 16° North 445 512 33,000  Level Cleveland Center
05:48PM 41.6872 -76.9961 16° North 442 509 33,000  Level Boston Center
05:49PM 41.8161 -76.9447 17° North 436 502 33,000  Level Boston Center
05:50PM 41.9200 -76.9047 16° North 436 502 33,000  Level Boston Center
05:51PM 42.0467 -76.8525 17° North 436 502 33,000  Level Boston Center
05:52PM 42.1619 -76.8069 16° North 436 502 33,000  Level Boston Center
05:53PM 42.2769 -76.7603 17° North 436 502 33,000  Level Boston Center
05:54PM 42.3906 -76.7142 17° North 434 499 33,000  Level Boston Center
05:55PM 42.5297 -76.6575 17° North 435 501 33,000  Level Boston Center
05:56PM 42.6456 -76.6117 16° North 435 501 33,000  Level Boston Center
05:57PM 42.7608 -76.5639 17° North 436 502 33,000  Level Boston Center
05:58PM 42.8800 -76.5136 17° North 435 501 33,000  Level Boston Center
05:59PM 42.9953 -76.4667 17° North 433 498 33,000  Level Boston Center
06:00PM 43.1103 -76.4189 17° North 433 498 33,000  Level Boston Center
06:01PM 43.2264 -76.3706 17° North 433 498 33,000  Level Boston Center
06:02PM 43.3400 -76.3239 17° North 430 495 33,000  Level Boston Center
06:03PM 43.4556 -76.2761 17° North 430 495 33,000  Level Boston Center
06:04PM 43.5700 -76.2261 18° North 430 495 33,000  Level Boston Center
06:05PM 43.6847 -76.1786 17° North 430 495 33,000  Level Boston Center
06:06PM 43.8225 -76.1194 17° North 430 495 33,000  Level Boston Center
06:08PM 43.9381 -76.0703 17° North 430 495 33,000  Level Boston Center
06:09PM 44.0431 -75.9839 31° Northeast 437 503 33,000 -600 Level Boston Center
06:10PM 44.1483 -75.8911 32° Northeast 441 507 31,900 -1,380 Descending Boston Center
06:11PM 44.2608 -75.7906 33° Northeast 475 547 30,300 -1,560 Descending Boston Center
06:12PM 44.3778 -75.6864 32° Northeast 492 566 28,700 -1,560 Descending Boston Center
06:13PM 44.4950 -75.5808 33° Northeast 500 575 27,100 -1,440 Descending Boston Center
06:14PM 44.6017 -75.4850 33° Northeast 461 531 25,900 -840 Descending Boston Center
06:15PM 44.7064 -75.3883 33° Northeast 456 525 25,400 -240 Descending Boston Center
06:16PM 44.8167 -75.2667 38° Northeast 430 495 25,400 -300 Level Montreal Center
06:17PM 44.9167 -75.1833 31° Northeast 440 506 24,900 -1,500 Descending Montreal Center
06:18PM 45.0167 -75.0667 39° Northeast 440 506 22,400 -3,060 Descending Montreal Center
06:19PM 45.1000 -74.9500 45° Northeast 430 495 18,800 -3,480 Descending Montreal Center
06:20PM 45.1333 -74.7833 74° East 430 495 15,500 -3,300 Descending Montreal Center
06:21PM 45.1667 -74.6167 74° East 410 472 12,200 -3,000 Descending Montreal Center
06:22PM 45.1833 -74.4667 81° East 380 437 9,500 -1,980 Descending Montreal Center
06:23PM 45.2167 -74.3500 68° East 300 345 8,300 -1,080 Descending Montreal Center
06:24PM 45.2333 -74.2500 77° East 300 345 7,400 -1,080 Descending Montreal Center
06:25PM 45.2667 -74.1333 68° East 290 334 6,200 -1,500 Descending Montreal Center
06:26PM 45.2667 -74.0333 90° East 280 322 4,500 -1,200 Descending Montreal Center
06:27PM 45.3000 -73.9500 60° Northeast 230 265 3,900 -900 Descending Montreal Center
06:28PM 45.3500 -73.9000 35° Northeast 220 253 2,800 -1,200 Descending Montreal Center
06:29PM 45.4000 -73.8167 49° Northeast 220 253 1,600 -1,080 Descending Montreal Center
06:30PM 45.4333 -73.7667 46° Northeast 180 207 700 -360 Descending Montreal Center
06:33PM 45.4500 -73.7500 35° Northeast 30 35 100 -240 Descending Montreal Center